Time;durP1;ratioP1;P1;durP2;ratioP2;P2;SDS_P1;SDS_P2;PMS_P1;PMS_P2;Temp;Humidity;BMP_temperature;BMP_pressure;BME280_temperature;BME280_humidity;BME280_pressure;Samples;Min_cycle;Max_cycle;Signal;HPM_P1;HPM_P2
2022/08/05 00:02:23;;;;;;;7.85;2.00;;;19.90;99.90;;;;;;5066213;28;20038;-72
2022/08/05 00:04:49;;;;;;;8.27;2.50;;;19.90;99.90;;;;;;5068418;28;20116;-72
2022/08/05 00:07:15;;;;;;;5.72;1.90;;;19.80;99.90;;;;;;5067898;28;20044;-73
2022/08/05 00:09:40;;;;;;;7.03;1.98;;;19.80;99.90;;;;;;5068530;28;20032;-73
2022/08/05 00:12:06;;;;;;;6.43;2.45;;;19.80;99.90;;;;;;5068022;28;20040;-72
2022/08/05 00:14:32;;;;;;;5.68;2.08;;;19.80;99.90;;;;;;5068199;28;20045;-73
2022/08/05 00:16:58;;;;;;;7.40;2.08;;;19.80;99.90;;;;;;5069184;28;20045;-73
2022/08/05 00:19:24;;;;;;;8.38;2.38;;;19.80;99.90;;;;;;5067217;28;20047;-73
2022/08/05 00:21:50;;;;;;;7.38;2.40;;;19.70;99.90;;;;;;5066005;28;20044;-72
2022/08/05 00:24:16;;;;;;;4.93;2.15;;;19.80;99.90;;;;;;5065264;28;20092;-72
2022/08/05 00:26:42;;;;;;;6.72;2.35;;;19.70;99.90;;;;;;5065472;28;20032;-73
2022/08/05 00:29:07;;;;;;;6.85;2.22;;;19.70;99.90;;;;;;5066630;28;20055;-72
2022/08/05 00:31:33;;;;;;;9.15;2.45;;;19.70;99.90;;;;;;5064234;28;20171;-72
2022/08/05 00:33:59;;;;;;;9.32;2.22;;;19.70;99.90;;;;;;5082840;28;20109;-73
2022/08/05 00:36:24;;;;;;;5.03;2.20;;;19.70;99.90;;;;;;5067798;28;20040;-72
2022/08/05 00:38:51;;;;;;;6.30;2.47;;;19.70;99.90;;;;;;5066992;28;20079;-72
2022/08/05 00:41:32;;;;;;;8.77;2.50;;;19.70;99.90;;;;;;5067165;28;20044;-73
2022/08/05 00:43:58;;;;;;;5.60;2.42;;;19.70;99.90;;;;;;5066995;28;20045;-73
2022/08/05 00:46:24;;;;;;;5.25;2.08;;;19.60;99.90;;;;;;5066610;28;20039;-72
2022/08/05 00:48:50;;;;;;;6.05;2.30;;;19.60;99.90;;;;;;5066764;28;20029;-72
2022/08/05 00:51:16;;;;;;;10.75;2.33;;;19.60;99.90;;;;;;5067292;28;20040;-72
2022/08/05 00:53:42;;;;;;;6.72;2.08;;;19.60;99.90;;;;;;5068067;28;20047;-72
2022/08/05 00:56:08;;;;;;;7.32;2.10;;;19.60;99.90;;;;;;5067192;28;20051;-72
2022/08/05 00:58:33;;;;;;;9.25;2.30;;;19.60;99.90;;;;;;5067485;28;20036;-72
2022/08/05 01:00:59;;;;;;;6.15;2.33;;;19.60;99.90;;;;;;5067124;28;20044;-72
2022/08/05 01:03:25;;;;;;;5.05;2.10;;;19.60;99.90;;;;;;5066235;28;20093;-73
2022/08/05 01:05:51;;;;;;;7.85;2.40;;;19.60;99.90;;;;;;5067268;28;20081;-72
2022/08/05 01:08:18;;;;;;;5.20;2.10;;;19.60;99.90;;;;;;5066487;28;20051;-73
2022/08/05 01:10:49;;;;;;;6.05;2.20;;;19.60;99.90;;;;;;5067513;28;20064;-73
2022/08/05 01:13:22;;;;;;;5.18;1.83;;;19.60;99.90;;;;;;5067323;28;20044;-73
2022/08/05 01:15:57;;;;;;;4.28;1.95;;;19.60;99.90;;;;;;5066558;28;20055;-72
2022/08/05 01:18:27;;;;;;;6.40;2.10;;;19.60;99.90;;;;;;5083482;28;20043;-72
2022/08/05 01:21:06;;;;;;;8.60;2.35;;;19.60;99.90;;;;;;5067026;28;20044;-72
2022/08/05 01:23:55;;;;;;;5.82;2.40;;;19.60;99.90;;;;;;5067170;28;20035;-72
2022/08/05 01:26:36;;;;;;;6.25;2.28;;;19.60;99.90;;;;;;5064397;28;20044;-73
2022/08/05 01:29:09;;;;;;;5.95;2.10;;;19.60;99.90;;;;;;5065344;28;20037;-72
2022/08/05 01:31:47;;;;;;;4.80;1.90;;;19.60;99.90;;;;;;5066171;28;20037;-72
2022/08/05 01:34:18;;;;;;;6.68;2.17;;;19.50;99.90;;;;;;5068833;28;20071;-73
2022/08/05 01:37:04;;;;;;;5.72;2.22;;;19.50;99.90;;;;;;5067029;28;20048;-73
2022/08/05 01:39:32;;;;;;;5.75;1.92;;;19.50;99.90;;;;;;5067239;28;20037;-72
2022/08/05 01:41:59;;;;;;;5.85;1.85;;;19.50;99.90;;;;;;5064558;28;20410;-72
2022/08/05 01:44:26;;;;;;;6.55;1.90;;;19.50;99.90;;;;;;5065903;28;20055;-73
2022/08/05 01:46:53;;;;;;;3.78;1.85;;;19.50;99.90;;;;;;5067151;28;20410;-73
2022/08/05 01:49:22;;;;;;;6.55;1.88;;;19.50;99.90;;;;;;5066135;28;20044;-73
2022/08/05 01:51:48;;;;;;;7.43;1.88;;;19.50;99.90;;;;;;5081924;28;20051;-72
2022/08/05 01:54:16;;;;;;;4.63;1.92;;;19.40;99.90;;;;;;5066840;28;20037;-73
2022/08/05 01:56:42;;;;;;;4.20;2.10;;;19.40;99.90;;;;;;5064569;28;20044;-73
2022/08/05 01:59:14;;;;;;;7.97;2.17;;;19.40;99.90;;;;;;5067008;28;20059;-72
2022/08/05 02:01:40;;;;;;;6.90;2.27;;;19.40;99.90;;;;;;5063862;28;20075;-73
2022/08/05 02:04:08;;;;;;;5.97;2.20;;;19.40;99.90;;;;;;5066405;28;20028;-73
2022/08/05 02:06:34;;;;;;;5.13;2.50;;;19.40;99.90;;;;;;5066161;28;20051;-72
2022/08/05 02:09:00;;;;;;;5.70;2.20;;;19.40;99.90;;;;;;5082806;28;20089;-72
2022/08/05 02:11:50;;;;;;;5.18;2.03;;;19.40;99.90;;;;;;5065082;28;20152;-73
2022/08/05 02:14:24;;;;;;;10.88;2.58;;;19.30;99.90;;;;;;5064728;28;20056;-73
2022/08/05 02:16:52;;;;;;;6.05;1.75;;;19.40;99.90;;;;;;5066147;28;20044;-73
2022/08/05 02:19:31;;;;;;;6.32;1.95;;;19.30;99.90;;;;;;5065151;28;20041;-73
2022/08/05 02:22:21;;;;;;;6.47;2.03;;;19.40;99.90;;;;;;5064626;28;20247;-73
2022/08/05 02:24:51;;;;;;;6.28;2.00;;;19.30;99.90;;;;;;5062607;28;20036;-73
2022/08/05 02:27:18;;;;;;;4.05;1.73;;;19.30;99.90;;;;;;5065711;28;20036;-73
2022/08/05 02:29:46;;;;;;;5.97;2.10;;;19.30;99.90;;;;;;5063955;28;20051;-73
2022/08/05 02:32:14;;;;;;;4.68;2.00;;;19.30;99.90;;;;;;5064919;28;20033;-73
2022/08/05 02:34:40;;;;;;;5.93;2.10;;;19.30;99.90;;;;;;5066932;28;20044;-73
2022/08/05 02:37:09;;;;;;;8.40;2.92;;;19.30;99.90;;;;;;5066139;28;20155;-72
2022/08/05 02:39:38;;;;;;;6.00;2.55;;;19.20;99.90;;;;;;5062767;28;20093;-72
2022/08/05 02:42:06;;;;;;;7.68;2.50;;;19.20;99.90;;;;;;5067233;28;20033;-72
2022/08/05 02:44:38;;;;;;;6.38;2.40;;;19.20;99.90;;;;;;5066486;28;20115;-73
2022/08/05 02:47:06;;;;;;;4.70;2.47;;;19.10;99.90;;;;;;5049900;28;20028;-72
2022/08/05 02:49:36;;;;;;;6.70;2.63;;;19.20;99.90;;;;;;5065454;28;20079;-72
2022/08/05 02:52:04;;;;;;;6.20;2.45;;;19.10;99.90;;;;;;5067103;28;20033;-72
2022/08/05 02:54:32;;;;;;;5.88;2.70;;;19.20;99.90;;;;;;5083326;28;20036;-72
2022/08/05 02:56:59;;;;;;;6.30;2.53;;;19.10;99.90;;;;;;5050491;28;20040;-73
2022/08/05 02:59:27;;;;;;;5.15;2.95;;;19.10;99.90;;;;;;5082741;28;20047;-72
2022/08/05 03:01:59;;;;;;;6.28;2.78;;;19.10;99.90;;;;;;5067302;28;20040;-72
2022/08/05 03:04:26;;;;;;;7.07;2.65;;;19.10;99.90;;;;;;5065686;28;20047;-72
2022/08/05 03:06:52;;;;;;;9.40;2.92;;;19.10;99.90;;;;;;5067450;28;20047;-73
2022/08/05 03:09:18;;;;;;;5.38;2.92;;;19.10;99.90;;;;;;5067957;28;20048;-72
2022/08/05 03:11:43;;;;;;;8.43;3.10;;;19.10;99.90;;;;;;5065143;28;20028;-72
2022/08/05 03:14:10;;;;;;;5.68;2.40;;;19.10;99.90;;;;;;5066416;28;20040;-73
2022/08/05 03:16:36;;;;;;;9.13;3.47;;;19.10;99.90;;;;;;5066392;28;20043;-72
2022/08/05 03:19:03;;;;;;;8.52;2.90;;;19.10;99.90;;;;;;5068556;28;20032;-72
2022/08/05 03:21:29;;;;;;;8.25;3.17;;;19.00;99.90;;;;;;5067811;28;20071;-73
2022/08/05 03:23:55;;;;;;;4.90;2.88;;;19.00;99.90;;;;;;5083997;28;20036;-73
2022/08/05 03:26:21;;;;;;;5.68;2.95;;;19.00;99.90;;;;;;5064596;28;20040;-72
2022/08/05 03:28:47;;;;;;;8.07;3.20;;;19.00;99.90;;;;;;5066377;28;20042;-73
2022/08/05 03:31:13;;;;;;;11.13;3.20;;;19.00;99.90;;;;;;5066599;28;20047;-72
2022/08/05 03:33:40;;;;;;;9.05;3.60;;;19.00;99.90;;;;;;5067036;28;20037;-73
2022/08/05 03:36:05;;;;;;;8.38;3.60;;;19.00;99.90;;;;;;5064906;28;20115;-72
2022/08/05 03:38:31;;;;;;;8.60;3.72;;;19.00;99.90;;;;;;5064310;28;20178;-73
2022/08/05 03:40:57;;;;;;;8.02;3.30;;;19.00;99.90;;;;;;5067964;28;20056;-72
2022/08/05 03:43:25;;;;;;;6.13;3.15;;;18.90;99.90;;;;;;5049483;28;20051;-72
2022/08/05 03:45:53;;;;;;;7.05;3.67;;;18.90;99.90;;;;;;5067764;28;20032;-72
2022/08/05 03:48:19;;;;;;;8.18;3.67;;;18.90;99.90;;;;;;5067382;28;20039;-73
2022/08/05 03:50:55;;;;;;;7.13;3.63;;;18.90;99.90;;;;;;5067663;28;20032;-72
2022/08/05 03:53:47;;;;;;;6.90;3.60;;;18.90;99.90;;;;;;5066478;28;20086;-72
2022/08/05 03:56:18;;;;;;;8.40;3.60;;;18.90;99.90;;;;;;5067855;28;20040;-73
2022/08/05 03:58:47;;;;;;;6.90;3.50;;;18.90;99.90;;;;;;5065889;28;20041;-72
2022/08/05 04:01:15;;;;;;;6.75;3.40;;;18.90;99.90;;;;;;5066336;28;20037;-73
2022/08/05 04:03:43;;;;;;;8.27;3.55;;;18.80;99.90;;;;;;5068338;28;20047;-73
2022/08/05 04:06:09;;;;;;;6.15;3.38;;;18.80;99.90;;;;;;5083263;28;20133;-72
2022/08/05 04:08:35;;;;;;;6.28;3.30;;;18.80;99.90;;;;;;5066441;28;20040;-73
2022/08/05 04:11:02;;;;;;;8.50;3.90;;;18.80;99.90;;;;;;5064794;28;20041;-73
2022/08/05 04:13:29;;;;;;;7.68;3.38;;;18.80;99.90;;;;;;5066647;28;20082;-72
2022/08/05 04:15:55;;;;;;;6.65;3.70;;;18.80;99.90;;;;;;5066202;28;20036;-72
2022/08/05 04:18:25;;;;;;;8.52;3.75;;;18.80;99.90;;;;;;5049972;28;20119;-72
2022/08/05 04:20:55;;;;;;;6.03;3.60;;;18.80;99.90;;;;;;5078244;28;20127;-72
2022/08/05 04:23:23;;;;;;;6.55;4.28;;;18.80;99.90;;;;;;5063526;28;20129;-72
2022/08/05 04:25:49;;;;;;;8.18;3.55;;;18.80;99.90;;;;;;5064079;28;20060;-73
2022/08/05 04:28:15;;;;;;;9.77;4.30;;;18.70;99.90;;;;;;5064388;28;20118;-72
2022/08/05 04:30:40;;;;;;;6.63;3.58;;;18.70;99.90;;;;;;5063659;28;20371;-72
2022/08/05 04:33:06;;;;;;;9.20;4.00;;;18.70;99.90;;;;;;5048972;28;20067;-72
2022/08/05 04:35:32;;;;;;;8.65;3.70;;;18.70;99.90;;;;;;5046981;28;20040;-73
2022/08/05 04:37:57;;;;;;;7.47;4.10;;;18.70;99.90;;;;;;5047230;28;20040;-72
2022/08/05 04:40:23;;;;;;;9.80;4.18;;;18.70;99.90;;;;;;5068128;28;20094;-72
2022/08/05 04:42:49;;;;;;;9.15;4.30;;;18.70;99.90;;;;;;5070757;28;20504;-72
2022/08/05 04:45:14;;;;;;;12.20;4.55;;;18.70;99.90;;;;;;5070057;28;20482;-73
2022/08/05 04:47:40;;;;;;;9.18;4.35;;;18.70;99.90;;;;;;5069154;28;20490;-72
2022/08/05 04:50:06;;;;;;;7.53;4.43;;;18.60;99.90;;;;;;5070786;28;20506;-72
2022/08/05 04:52:32;;;;;;;6.53;4.60;;;18.60;99.90;;;;;;5071799;28;20032;-72
2022/08/05 04:54:57;;;;;;;10.45;4.13;;;18.60;99.90;;;;;;5071377;28;20120;-72
2022/08/05 04:57:24;;;;;;;5.43;4.20;;;18.60;99.90;;;;;;5069490;28;20074;-72
2022/08/05 04:59:50;;;;;;;7.88;4.40;;;18.70;99.90;;;;;;5068644;28;20040;-73
2022/08/05 05:02:15;;;;;;;9.77;4.47;;;18.70;99.90;;;;;;5068312;28;20043;-72
2022/08/05 05:04:41;;;;;;;8.88;4.10;;;18.70;99.90;;;;;;5069708;28;20065;-72
2022/08/05 05:07:07;;;;;;;7.05;4.60;;;18.70;99.90;;;;;;5068995;28;20063;-72
2022/08/05 05:09:33;;;;;;;9.95;4.35;;;18.70;99.90;;;;;;5069717;28;20425;-73
2022/08/05 05:12:00;;;;;;;8.25;4.22;;;18.70;99.90;;;;;;5067066;28;20048;-73
2022/08/05 05:14:26;;;;;;;9.48;4.32;;;18.70;99.90;;;;;;5071007;28;20444;-71
2022/08/05 05:16:51;;;;;;;10.32;4.22;;;18.70;99.90;;;;;;5053387;28;20048;-72
2022/08/05 05:19:17;;;;;;;6.78;4.03;;;18.60;99.90;;;;;;5067216;28;20044;-72
2022/08/05 05:21:43;;;;;;;6.78;4.07;;;18.70;99.90;;;;;;5068662;28;20040;-72
2022/08/05 05:24:09;;;;;;;7.22;3.85;;;18.70;99.90;;;;;;5050205;28;20041;-73
2022/08/05 05:26:34;;;;;;;10.15;3.90;;;18.70;99.90;;;;;;5066458;28;20047;-72
2022/08/05 05:29:00;;;;;;;8.15;3.80;;;18.70;99.90;;;;;;5068742;28;20460;-73
2022/08/05 05:31:26;;;;;;;10.20;3.80;;;18.80;99.90;;;;;;5066262;28;20094;-72
2022/08/05 05:33:52;;;;;;;6.97;3.72;;;18.70;99.90;;;;;;5068645;28;20067;-73
2022/08/05 05:36:17;;;;;;;9.38;4.07;;;18.70;99.90;;;;;;5072505;28;20063;-72
2022/08/05 05:38:43;;;;;;;6.25;3.50;;;18.70;99.90;;;;;;5086570;28;20052;-72
2022/08/05 05:41:08;;;;;;;10.38;3.67;;;18.70;99.90;;;;;;5070069;28;20651;-72
2022/08/05 05:43:34;;;;;;;8.50;3.70;;;18.70;99.90;;;;;;5081508;28;20035;-72
2022/08/05 05:46:00;;;;;;;7.57;3.72;;;18.70;99.90;;;;;;5078158;28;20115;-72
2022/08/05 05:48:25;;;;;;;11.77;4.10;;;18.70;99.90;;;;;;5072164;28;20043;-72
2022/08/05 05:50:51;;;;;;;8.00;3.90;;;18.70;99.90;;;;;;5073277;28;20073;-72
2022/08/05 05:53:17;;;;;;;7.45;4.38;;;18.70;99.90;;;;;;5088654;28;20044;-72
2022/08/05 05:55:42;;;;;;;10.38;3.80;;;18.70;99.90;;;;;;5051042;28;20128;-72
2022/08/05 05:58:08;;;;;;;10.77;3.78;;;18.70;99.90;;;;;;5072876;28;20044;-72
2022/08/05 06:00:33;;;;;;;7.15;3.85;;;18.70;99.90;;;;;;5072248;28;20115;-72
2022/08/05 06:03:01;;;;;;;8.13;3.80;;;18.70;99.90;;;;;;5084895;28;20044;-72
2022/08/05 06:05:26;;;;;;;8.63;4.05;;;18.70;99.90;;;;;;5074879;28;20445;-72
2022/08/05 06:07:52;;;;;;;10.20;4.50;;;18.70;99.90;;;;;;5059880;28;20037;-72
2022/08/05 06:10:18;;;;;;;6.35;3.47;;;18.70;99.90;;;;;;5069517;28;20043;-73
2022/08/05 06:12:43;;;;;;;10.15;4.10;;;18.70;99.90;;;;;;5072683;28;20043;-72
2022/08/05 06:15:09;;;;;;;8.25;3.90;;;18.80;99.90;;;;;;5068575;28;20410;-72
2022/08/05 06:17:35;;;;;;;7.05;3.75;;;18.80;99.90;;;;;;5076823;28;20536;-72
2022/08/05 06:20:03;;;;;;;8.50;3.75;;;18.90;99.90;;;;;;5061025;28;20040;-72
2022/08/05 06:22:33;;;;;;;7.70;3.90;;;18.90;99.90;;;;;;5082631;28;20041;-73
2022/08/05 06:24:59;;;;;;;8.52;3.47;;;18.90;99.90;;;;;;5068936;28;20103;-72
2022/08/05 06:27:25;;;;;;;5.80;3.50;;;18.90;99.90;;;;;;5072769;28;20123;-72
2022/08/05 06:29:50;;;;;;;7.18;3.50;;;18.90;99.90;;;;;;5068388;28;20124;-72
2022/08/05 06:32:17;;;;;;;9.48;3.58;;;18.90;99.90;;;;;;5072253;28;20040;-72
2022/08/05 06:34:42;;;;;;;7.63;3.78;;;18.90;99.90;;;;;;5073005;28;20040;-72
2022/08/05 06:37:08;;;;;;;8.18;3.70;;;18.90;99.90;;;;;;5055466;28;20089;-72
2022/08/05 06:39:34;;;;;;;8.85;3.97;;;18.80;99.90;;;;;;5063467;28;20075;-72
2022/08/05 06:42:01;;;;;;;7.53;4.13;;;18.80;99.90;;;;;;5074086;28;20036;-72
2022/08/05 06:44:27;;;;;;;7.65;3.58;;;18.90;99.90;;;;;;5073888;28;20085;-72
2022/08/05 06:46:53;;;;;;;8.10;3.40;;;18.90;99.90;;;;;;5071451;28;20070;-72
2022/08/05 06:49:19;;;;;;;9.40;3.90;;;18.90;99.90;;;;;;5072551;28;20051;-72
2022/08/05 06:51:44;;;;;;;5.93;3.55;;;18.90;99.90;;;;;;5087959;28;20049;-73
2022/08/05 06:54:10;;;;;;;6.95;3.47;;;19.00;99.90;;;;;;5063795;28;20044;-72
2022/08/05 06:56:36;;;;;;;7.93;3.45;;;19.00;99.90;;;;;;5072437;28;20074;-72
2022/08/05 06:59:06;;;;;;;5.80;3.20;;;19.00;99.90;;;;;;5077391;28;20521;-72
2022/08/05 07:01:31;;;;;;;7.18;3.70;;;19.10;99.90;;;;;;5084394;28;20051;-72
2022/08/05 07:03:57;;;;;;;6.80;3.00;;;19.10;99.90;;;;;;5070567;28;20041;-72
2022/08/05 07:06:23;;;;;;;7.22;2.70;;;19.20;99.90;;;;;;5077601;28;20039;-73
2022/08/05 07:08:52;;;;;;;8.50;2.78;;;19.30;99.90;;;;;;5072791;28;20098;-73
2022/08/05 07:11:19;;;;;;;6.82;2.42;;;19.40;99.90;;;;;;5075041;28;20048;-72
2022/08/05 07:19:19;;;;;;;5.35;2.63;;;19.60;99.90;;;;;;5067987;28;20032;-72
2022/08/05 07:21:45;;;;;;;5.40;2.50;;;19.70;99.90;;;;;;5068824;28;20090;-72
2022/08/05 07:24:12;;;;;;;5.18;2.67;;;19.80;99.90;;;;;;5069302;28;20087;-72
2022/08/05 07:26:39;;;;;;;6.63;2.85;;;19.80;99.90;;;;;;5072497;28;20436;-73
2022/08/05 07:29:05;;;;;;;5.53;2.65;;;19.80;99.90;;;;;;5066240;28;20039;-72
2022/08/05 07:31:31;;;;;;;4.90;2.30;;;19.90;99.90;;;;;;5067731;28;20064;-72
2022/08/05 07:33:56;;;;;;;4.90;2.00;;;20.00;99.90;;;;;;5084937;28;20119;-74
2022/08/05 07:36:22;;;;;;;5.28;2.13;;;20.20;99.90;;;;;;5070554;28;20079;-73
2022/08/05 07:38:48;;;;;;;3.85;1.75;;;20.20;99.90;;;;;;5071536;28;20088;-73
2022/08/05 07:41:19;;;;;;;4.03;1.65;;;20.40;99.90;;;;;;5070079;28;20131;-73
2022/08/05 07:43:45;;;;;;;3.88;1.60;;;20.50;99.90;;;;;;5068138;28;20082;-73
2022/08/05 07:46:11;;;;;;;3.28;1.50;;;20.80;99.90;;;;;;5066316;28;20033;-73
2022/08/05 07:48:37;;;;;;;3.45;1.65;;;21.00;99.90;;;;;;5062623;28;20064;-73
2022/08/05 07:51:02;;;;;;;2.88;1.27;;;21.20;99.90;;;;;;5069005;28;20055;-73
2022/08/05 07:53:28;;;;;;;3.60;1.02;;;21.50;99.90;;;;;;5077397;28;20036;-73
2022/08/05 07:55:54;;;;;;;3.35;1.08;;;21.60;99.90;;;;;;5057249;28;20109;-73
2022/08/05 07:58:19;;;;;;;3.55;1.17;;;21.70;99.90;;;;;;5071568;28;20074;-73
2022/08/05 08:00:45;;;;;;;3.78;1.35;;;21.70;99.90;;;;;;5053042;28;20044;-73
2022/08/05 08:03:12;;;;;;;6.30;1.25;;;21.90;99.90;;;;;;5068912;28;20045;-73
2022/08/05 08:05:42;;;;;;;3.97;1.10;;;22.00;99.90;;;;;;5081549;28;20029;-73
2022/08/05 08:08:12;;;;;;;3.33;1.10;;;22.00;99.90;;;;;;5070167;28;20067;-73
2022/08/05 08:10:38;;;;;;;2.38;1.02;;;22.00;99.90;;;;;;5066109;28;20036;-73
2022/08/05 08:13:04;;;;;;;1.10;0.73;;;22.10;99.90;;;;;;5073066;28;20040;-73
2022/08/05 08:15:31;;;;;;;3.40;1.00;;;22.10;99.90;;;;;;5074413;28;20066;-73
2022/08/05 08:17:56;;;;;;;6.68;1.38;;;22.20;99.90;;;;;;5090394;28;20065;-73
2022/08/05 08:20:23;;;;;;;5.82;1.08;;;22.20;99.90;;;;;;5072189;28;20044;-73
2022/08/05 08:22:50;;;;;;;4.95;1.10;;;22.20;99.90;;;;;;5088464;28;20044;-73
2022/08/05 08:25:17;;;;;;;2.03;0.93;;;22.20;99.90;;;;;;5071636;28;20043;-73
2022/08/05 08:27:43;;;;;;;3.08;1.00;;;22.20;99.90;;;;;;5089181;28;20040;-73
2022/08/05 08:30:10;;;;;;;2.90;1.10;;;22.30;99.90;;;;;;5073923;28;20119;-73
2022/08/05 08:32:36;;;;;;;4.97;1.30;;;22.40;99.90;;;;;;5072323;28;20036;-73
2022/08/05 08:35:02;;;;;;;3.42;0.98;;;22.40;99.90;;;;;;5065739;28;20379;-73
2022/08/05 08:37:28;;;;;;;4.88;2.17;;;22.50;99.90;;;;;;5073286;28;20052;-73
2022/08/05 08:39:53;;;;;;;3.67;1.00;;;22.60;99.90;;;;;;5058999;28;20430;-73
2022/08/05 08:42:21;;;;;;;3.22;1.20;;;22.50;99.90;;;;;;5067993;28;20072;-73
2022/08/05 08:44:48;;;;;;;3.20;1.20;;;22.60;99.90;;;;;;5075279;28;20044;-73
2022/08/05 08:47:14;;;;;;;2.38;1.00;;;22.60;99.90;;;;;;5074844;28;20040;-73
2022/08/05 08:49:44;;;;;;;3.80;1.23;;;22.60;99.90;;;;;;5074165;28;20029;-73
2022/08/05 08:52:17;;;;;;;4.45;1.30;;;22.60;99.90;;;;;;5073562;28;20498;-73
2022/08/05 08:54:44;;;;;;;3.13;1.13;;;22.60;99.90;;;;;;5072681;28;20786;-73
2022/08/05 08:57:10;;;;;;;3.40;1.10;;;22.50;99.90;;;;;;5094948;28;20043;-73
2022/08/05 08:59:37;;;;;;;2.35;0.85;;;22.50;99.90;;;;;;5094002;28;20427;-73
2022/08/05 09:02:05;;;;;;;2.25;0.80;;;22.50;99.90;;;;;;5061786;28;20563;-73
2022/08/05 09:04:35;;;;;;;2.63;1.00;;;22.50;99.90;;;;;;5071219;28;20047;-73
2022/08/05 09:07:01;;;;;;;1.85;0.70;;;22.50;99.90;;;;;;5072824;28;20090;-73
2022/08/05 09:09:26;;;;;;;1.83;0.82;;;22.50;99.90;;;;;;5080608;28;20040;-72
2022/08/05 09:11:52;;;;;;;2.10;0.70;;;22.60;99.90;;;;;;5077602;28;20040;-73
2022/08/05 09:14:19;;;;;;;3.95;0.80;;;22.50;99.90;;;;;;5077927;28;20043;-73
2022/08/05 09:16:44;;;;;;;2.38;0.70;;;22.50;99.90;;;;;;5071274;28;20033;-73
2022/08/05 09:19:10;;;;;;;4.28;0.90;;;22.60;99.90;;;;;;5075512;28;20043;-73
2022/08/05 09:21:36;;;;;;;2.10;0.70;;;22.60;99.90;;;;;;5076420;28;20041;-73
2022/08/05 09:24:07;;;;;;;2.65;0.60;;;22.60;99.90;;;;;;5077004;28;20064;-73
2022/08/05 09:26:35;;;;;;;3.33;1.17;;;22.60;99.90;;;;;;5075152;28;20546;-73
2022/08/05 09:29:03;;;;;;;1.83;0.77;;;22.60;99.90;;;;;;5076490;28;20041;-73
2022/08/05 09:31:30;;;;;;;1.60;0.68;;;22.60;99.90;;;;;;5073754;28;20155;-73
2022/08/05 09:34:01;;;;;;;1.73;0.80;;;22.50;99.90;;;;;;5064637;28;20104;-73
2022/08/05 09:36:40;;;;;;;3.93;0.80;;;22.70;99.90;;;;;;5059746;28;20059;-73
2022/08/05 09:39:08;;;;;;;4.05;0.80;;;22.80;99.90;;;;;;5075695;28;20305;-73
2022/08/05 09:41:53;;;;;;;2.47;0.57;;;22.90;99.90;;;;;;5074444;28;20047;-73
2022/08/05 09:44:41;;;;;;;2.42;0.80;;;23.00;99.90;;;;;;5076982;28;20041;-73
2022/08/05 09:47:13;;;;;;;6.53;1.17;;;23.30;99.90;;;;;;5057635;28;20539;-74
2022/08/05 09:49:47;;;;;;;4.25;0.77;;;23.40;97.00;;;;;;5071605;28;20507;-74
2022/08/05 09:52:17;;;;;;;3.17;0.52;;;23.70;97.80;;;;;;5067774;28;20521;-74
2022/08/05 09:55:09;;;;;;;2.42;0.60;;;23.80;96.40;;;;;;5071301;28;20513;-74
2022/08/05 09:57:41;;;;;;;3.58;0.60;;;23.80;96.40;;;;;;5080846;28;20112;-74
2022/08/05 10:00:10;;;;;;;1.73;0.73;;;23.90;94.10;;;;;;5074165;28;20036;-73
2022/08/05 10:02:37;;;;;;;1.17;0.60;;;24.00;94.10;;;;;;5049976;28;20047;-73
2022/08/05 10:05:09;;;;;;;0.82;0.50;;;24.20;92.90;;;;;;5081836;28;20039;-73
2022/08/05 10:07:41;;;;;;;;;;;24.20;93.50;;;;;;5080871;28;20498;-73
2022/08/05 10:10:07;;;;;;;1.58;0.60;;;24.20;93.20;;;;;;5069715;28;20374;-73
2022/08/05 10:12:50;;;;;;;2.67;0.90;;;24.10;91.10;;;;;;5059462;28;20048;-73
2022/08/05 10:15:26;;;;;;;6.05;2.00;;;24.00;92.50;;;;;;5074018;28;20076;-73
2022/08/05 10:18:18;;;;;;;4.55;1.88;;;24.00;92.10;;;;;;5043660;28;20193;-73
2022/08/05 10:20:44;;;;;;;5.18;1.17;;;24.00;90.90;;;;;;5055358;28;20037;-73
2022/08/05 10:23:12;;;;;;;2.70;0.90;;;24.10;89.00;;;;;;5074606;28;20577;-73
2022/08/05 10:25:38;;;;;;;3.95;1.02;;;24.40;87.90;;;;;;5079858;28;20040;-73
2022/08/05 10:28:05;;;;;;;1.30;0.60;;;24.50;79.60;;;;;;5074475;28;20522;-74
2022/08/05 10:30:31;;;;;;;0.80;0.60;;;24.50;75.70;;;;;;5076893;28;20405;-74
2022/08/05 10:33:00;;;;;;;1.55;0.40;;;24.50;78.90;;;;;;5059773;28;20044;-73
2022/08/05 10:35:25;;;;;;;4.93;0.65;;;24.50;80.70;;;;;;5071701;28;20503;-73
2022/08/05 10:37:53;;;;;;;2.28;0.60;;;24.60;80.80;;;;;;5073019;28;20090;-73
2022/08/05 10:40:33;;;;;;;2.00;0.52;;;24.60;82.00;;;;;;5072350;28;20507;-73
2022/08/05 10:43:15;;;;;;;1.58;0.57;;;24.60;79.30;;;;;;5064082;28;20380;-74
2022/08/05 10:45:41;;;;;;;4.82;0.50;;;24.70;78.80;;;;;;5066560;28;20485;-73
2022/08/05 10:48:27;;;;;;;2.60;0.60;;;24.80;75.50;;;;;;5071202;28;20414;-73
2022/08/05 10:51:08;;;;;;;3.83;0.52;;;25.10;74.80;;;;;;5062902;28;20063;-73
2022/08/05 10:53:44;;;;;;;1.92;0.50;;;25.30;71.30;;;;;;5084806;28;20462;-73
2022/08/05 10:56:15;;;;;;;3.50;0.52;;;25.30;74.80;;;;;;5077001;28;20041;-73
2022/08/05 10:59:07;;;;;;;6.20;0.55;;;25.30;71.00;;;;;;5080516;28;20094;-75
2022/08/05 11:01:38;;;;;;;5.68;0.40;;;25.50;64.40;;;;;;5082442;28;20109;-74
2022/08/05 11:04:16;;;;;;;2.85;0.40;;;25.50;61.30;;;;;;5063818;28;20037;-74
2022/08/05 11:06:59;;;;;;;1.40;0.40;;;25.60;60.90;;;;;;5073002;28;20055;-74
2022/08/05 11:09:25;;;;;;;0.93;0.40;;;25.80;57.60;;;;;;5056083;28;20399;-74
2022/08/05 11:11:53;;;;;;;2.25;0.45;;;26.00;59.00;;;;;;5069801;28;20050;-74
2022/08/05 11:14:30;;;;;;;1.17;0.50;;;26.30;58.10;;;;;;5078589;28;20070;-74
2022/08/05 11:17:14;;;;;;;0.43;0.20;;;26.60;53.00;;;;;;5058964;28;20059;-73
2022/08/05 11:19:47;;;;;;;1.80;0.20;;;26.80;53.90;;;;;;5043529;28;20044;-74
2022/08/05 11:22:43;;;;;;;5.07;0.50;;;26.80;53.50;;;;;;5070116;28;20056;-74
2022/08/05 11:25:28;;;;;;;1.75;0.50;;;26.90;54.20;;;;;;5065871;28;20052;-73
2022/08/05 11:27:55;;;;;;;4.72;0.60;;;26.90;55.80;;;;;;5070660;28;20040;-73
2022/08/05 11:30:21;;;;;;;0.82;0.28;;;26.80;53.20;;;;;;5069566;28;20058;-73
2022/08/05 11:32:47;;;;;;;1.63;0.35;;;27.00;52.50;;;;;;5069252;28;20036;-73
2022/08/05 11:35:55;;;;;;;0.93;0.30;;;27.30;51.50;;;;;;5060194;28;20551;-74
2022/08/05 11:38:48;;;;;;;8.02;1.02;;;27.50;51.40;;;;;;5046805;28;20041;-75
2022/08/05 11:41:16;;;;;;;1.90;0.55;;;27.90;50.40;;;;;;5087640;28;20524;-74
2022/08/05 11:44:09;;;;;;;1.58;0.43;;;27.70;47.90;;;;;;5074917;28;20044;-75
2022/08/05 11:46:52;;;;;;;1.88;0.50;;;26.90;48.30;;;;;;5066104;28;20036;-74
2022/08/05 11:49:21;;;;;;;2.15;0.45;;;26.70;50.80;;;;;;5067242;28;20044;-72
2022/08/05 11:51:49;;;;;;;2.22;0.32;;;26.50;52.30;;;;;;5086118;28;20036;-72
2022/08/05 11:54:31;;;;;;;1.95;0.40;;;26.50;52.50;;;;;;5060766;28;20064;-72
2022/08/05 11:56:57;;;;;;;0.93;0.30;;;26.20;51.60;;;;;;5070344;28;20087;-71
2022/08/05 11:59:26;;;;;;;2.05;0.50;;;26.10;53.80;;;;;;5065410;28;20431;-74
2022/08/05 12:02:09;;;;;;;3.30;0.40;;;25.90;52.10;;;;;;5064723;28;20107;-73
2022/08/05 12:04:44;;;;;;;2.88;0.50;;;25.70;52.60;;;;;;5072308;28;20071;-74
2022/08/05 12:07:16;;;;;;;1.27;0.45;;;25.50;55.00;;;;;;5069987;28;20043;-74
2022/08/05 12:09:46;;;;;;;1.13;0.20;;;25.50;55.20;;;;;;5067947;28;20032;-72
2022/08/05 12:12:12;;;;;;;3.67;0.50;;;25.50;55.30;;;;;;5059606;28;20120;-71
2022/08/05 12:14:39;;;;;;;1.50;0.40;;;25.60;56.80;;;;;;5071404;28;20175;-72
2022/08/05 12:17:10;;;;;;;4.55;0.75;;;25.70;57.50;;;;;;5069986;28;20048;-72
2022/08/05 12:19:51;;;;;;;5.53;0.40;;;25.90;56.40;;;;;;5068771;28;20085;-72
2022/08/05 12:22:25;;;;;;;2.90;0.40;;;25.80;57.00;;;;;;5064261;28;20040;-73
2022/08/05 12:24:50;;;;;;;1.85;0.45;;;25.80;58.10;;;;;;5064452;28;20041;-73
2022/08/05 12:27:25;;;;;;;2.05;0.50;;;25.60;58.30;;;;;;5071104;28;20402;-72
2022/08/05 12:30:05;;;;;;;7.78;0.50;;;25.50;60.00;;;;;;5087829;28;20444;-72
2022/08/05 12:32:33;;;;;;;4.40;0.40;;;25.40;58.30;;;;;;5058873;28;20052;-72
2022/08/05 12:35:01;;;;;;;1.13;0.30;;;25.20;58.80;;;;;;5071194;28;20456;-72
2022/08/05 12:37:27;;;;;;;3.67;0.60;;;25.00;60.50;;;;;;5069572;28;20067;-72
2022/08/05 12:39:56;;;;;;;1.33;0.40;;;25.10;59.20;;;;;;5069674;28;20490;-72
2022/08/05 12:42:22;;;;;;;0.90;0.30;;;25.10;58.50;;;;;;5073079;28;20040;-72
2022/08/05 12:44:48;;;;;;;2.15;0.47;;;25.00;58.90;;;;;;5066139;28;20052;-72
2022/08/05 12:47:27;;;;;;;3.83;0.50;;;25.10;59.90;;;;;;5024707;28;20784;-72
2022/08/05 12:49:52;;;;;;;1.50;0.50;;;24.90;58.00;;;;;;5066654;28;20119;-72
2022/08/05 12:52:18;;;;;;;0.65;0.30;;;24.80;57.60;;;;;;5068100;28;20123;-72
2022/08/05 12:54:47;;;;;;;1.88;0.50;;;24.90;58.20;;;;;;5071950;28;20069;-72
2022/08/05 12:57:13;;;;;;;0.75;0.40;;;25.00;57.40;;;;;;5062881;28;20040;-72
2022/08/05 12:59:53;;;;;;;0.95;0.50;;;24.90;57.40;;;;;;5073627;28;20439;-73
2022/08/05 13:02:26;;;;;;;4.43;0.57;;;24.80;60.20;;;;;;5071967;28;20552;-74